sensor_id;sensor_type;location;lat;lon;timestamp;pressure;altitude;pressure_sealevel;temperature;humidity
37170;BME280;23062;13.952;100.608;2023-07-20T00:02:50;1005.79;;;31.75;57.18
37170;BME280;23062;13.952;100.608;2023-07-20T00:07:20;1005.86;;;31.73;57.28
37170;BME280;23062;13.952;100.608;2023-07-20T00:11:53;1005.91;;;31.71;57.55
37170;BME280;23062;13.952;100.608;2023-07-20T00:16:27;1005.97;;;31.80;57.27
37170;BME280;23062;13.952;100.608;2023-07-20T00:21:00;1005.91;;;31.76;57.43
37170;BME280;23062;13.952;100.608;2023-07-20T00:25:26;1005.90;;;31.80;57.36
37170;BME280;23062;13.952;100.608;2023-07-20T00:29:52;1005.84;;;31.74;57.68
37170;BME280;23062;13.952;100.608;2023-07-20T00:34:20;1005.83;;;31.75;57.82
37170;BME280;23062;13.952;100.608;2023-07-20T00:38:53;1005.88;;;31.83;57.80
37170;BME280;23062;13.952;100.608;2023-07-20T00:43:25;1005.82;;;31.81;57.75
37170;BME280;23062;13.952;100.608;2023-07-20T00:47:49;1005.85;;;31.82;57.79
37170;BME280;23062;13.952;100.608;2023-07-20T00:52:16;1005.85;;;31.80;57.90
37170;BME280;23062;13.952;100.608;2023-07-20T00:56:46;1005.90;;;31.81;57.80
37170;BME280;23062;13.952;100.608;2023-07-20T01:01:12;1005.94;;;31.79;58.26
37170;BME280;23062;13.952;100.608;2023-07-20T01:05:48;1005.95;;;31.83;57.90
37170;BME280;23062;13.952;100.608;2023-07-20T01:10:43;1005.94;;;31.78;58.40
37170;BME280;23062;13.952;100.608;2023-07-20T01:15:11;1005.95;;;31.86;58.18
37170;BME280;23062;13.952;100.608;2023-07-20T01:19:38;1005.98;;;31.82;58.41
37170;BME280;23062;13.952;100.608;2023-07-20T01:33:33;1006.05;;;31.72;58.81
37170;BME280;23062;13.952;100.608;2023-07-20T01:38:00;1006.00;;;31.59;59.53
37170;BME280;23062;13.952;100.608;2023-07-20T01:42:28;1006.02;;;31.68;59.46
37170;BME280;23062;13.952;100.608;2023-07-20T01:46:57;1006.11;;;31.71;58.87
37170;BME280;23062;13.952;100.608;2023-07-20T01:51:22;1006.16;;;31.76;58.92
37170;BME280;23062;13.952;100.608;2023-07-20T01:55:48;1006.26;;;31.77;59.04
37170;BME280;23062;13.952;100.608;2023-07-20T02:00:14;1006.28;;;31.70;58.87
37170;BME280;23062;13.952;100.608;2023-07-20T02:04:40;1006.28;;;31.64;58.96
37170;BME280;23062;13.952;100.608;2023-07-20T02:09:13;1006.32;;;31.60;59.04
37170;BME280;23062;13.952;100.608;2023-07-20T02:13:39;1006.27;;;31.61;58.91
37170;BME280;23062;13.952;100.608;2023-07-20T02:18:06;1006.26;;;31.64;58.57
37170;BME280;23062;13.952;100.608;2023-07-20T02:22:33;1006.28;;;31.70;58.38
37170;BME280;23062;13.952;100.608;2023-07-20T02:27:02;1006.29;;;31.68;58.21
37170;BME280;23062;13.952;100.608;2023-07-20T02:31:27;1006.37;;;31.72;58.45
37170;BME280;23062;13.952;100.608;2023-07-20T02:35:54;1006.42;;;31.78;58.47
37170;BME280;23062;13.952;100.608;2023-07-20T02:40:21;1006.40;;;31.79;58.40
37170;BME280;23062;13.952;100.608;2023-07-20T02:44:46;1006.38;;;31.82;58.32
37170;BME280;23062;13.952;100.608;2023-07-20T02:49:12;1006.28;;;31.83;58.22
37170;BME280;23062;13.952;100.608;2023-07-20T02:53:39;1006.30;;;31.85;58.06
37170;BME280;23062;13.952;100.608;2023-07-20T02:58:13;1006.26;;;31.90;58.06
37170;BME280;23062;13.952;100.608;2023-07-20T03:02:40;1006.19;;;31.93;57.82
37170;BME280;23062;13.952;100.608;2023-07-20T03:07:13;1006.16;;;31.92;57.89
37170;BME280;23062;13.952;100.608;2023-07-20T03:11:38;1006.17;;;31.97;57.55
37170;BME280;23062;13.952;100.608;2023-07-20T03:16:04;1006.22;;;31.98;57.65
37170;BME280;23062;13.952;100.608;2023-07-20T03:20:36;1006.25;;;32.00;57.54
37170;BME280;23062;13.952;100.608;2023-07-20T03:25:09;1006.35;;;32.03;57.38
37170;BME280;23062;13.952;100.608;2023-07-20T03:29:36;1006.39;;;32.08;57.20
37170;BME280;23062;13.952;100.608;2023-07-20T03:34:02;1006.36;;;32.13;57.44
37170;BME280;23062;13.952;100.608;2023-07-20T03:38:29;1006.35;;;32.11;58.69
37170;BME280;23062;13.952;100.608;2023-07-20T03:42:55;1006.31;;;32.12;59.45
37170;BME280;23062;13.952;100.608;2023-07-20T03:47:21;1006.39;;;32.11;59.61
37170;BME280;23062;13.952;100.608;2023-07-20T03:51:47;1006.41;;;32.08;59.85
37170;BME280;23062;13.952;100.608;2023-07-20T03:56:14;1006.33;;;32.09;59.57
37170;BME280;23062;13.952;100.608;2023-07-20T04:00:48;1006.30;;;32.11;59.35
37170;BME280;23062;13.952;100.608;2023-07-20T04:05:19;1006.22;;;32.13;59.14
37170;BME280;23062;13.952;100.608;2023-07-20T04:09:45;1006.19;;;32.14;58.90
37170;BME280;23062;13.952;100.608;2023-07-20T04:14:18;1006.14;;;32.14;58.46
37170;BME280;23062;13.952;100.608;2023-07-20T04:18:43;1006.17;;;32.14;58.19
37170;BME280;23062;13.952;100.608;2023-07-20T04:23:10;1006.12;;;32.18;58.01
37170;BME280;23062;13.952;100.608;2023-07-20T04:27:41;1006.14;;;32.19;57.97
37170;BME280;23062;13.952;100.608;2023-07-20T04:32:07;1006.10;;;32.22;57.84
37170;BME280;23062;13.952;100.608;2023-07-20T04:36:39;1006.01;;;32.22;57.64
37170;BME280;23062;13.952;100.608;2023-07-20T04:41:09;1006.04;;;32.22;57.47
37170;BME280;23062;13.952;100.608;2023-07-20T04:45:43;1006.09;;;32.22;57.56
37170;BME280;23062;13.952;100.608;2023-07-20T04:50:10;1006.06;;;32.27;57.40
37170;BME280;23062;13.952;100.608;2023-07-20T04:54:43;1006.09;;;32.30;57.18
37170;BME280;23062;13.952;100.608;2023-07-20T04:59:17;1006.05;;;32.38;56.81
37170;BME280;23062;13.952;100.608;2023-07-20T05:03:42;1006.07;;;32.45;56.72
37170;BME280;23062;13.952;100.608;2023-07-20T05:08:07;1006.10;;;32.45;56.75
37170;BME280;23062;13.952;100.608;2023-07-20T05:12:41;1006.03;;;32.48;56.42
37170;BME280;23062;13.952;100.608;2023-07-20T05:17:08;1006.07;;;32.47;56.51
37170;BME280;23062;13.952;100.608;2023-07-20T05:21:44;1005.93;;;32.49;56.24
37170;BME280;23062;13.952;100.608;2023-07-20T05:26:10;1005.83;;;32.47;56.31
37170;BME280;23062;13.952;100.608;2023-07-20T05:30:35;1005.84;;;32.51;56.42
37170;BME280;23062;13.952;100.608;2023-07-20T05:35:00;1005.76;;;32.51;56.55
37170;BME280;23062;13.952;100.608;2023-07-20T05:39:28;1005.77;;;32.54;56.36
37170;BME280;23062;13.952;100.608;2023-07-20T05:43:54;1005.66;;;32.57;56.12
37170;BME280;23062;13.952;100.608;2023-07-20T05:48:19;1005.67;;;32.55;55.77
37170;BME280;23062;13.952;100.608;2023-07-20T05:52:57;1005.56;;;32.58;55.20
37170;BME280;23062;13.952;100.608;2023-07-20T05:57:32;1005.48;;;32.59;55.24
37170;BME280;23062;13.952;100.608;2023-07-20T06:01:57;1005.40;;;32.58;55.12
37170;BME280;23062;13.952;100.608;2023-07-20T06:06:23;1005.30;;;32.59;55.16
37170;BME280;23062;13.952;100.608;2023-07-20T06:10:50;1005.18;;;32.66;55.03
37170;BME280;23062;13.952;100.608;2023-07-20T06:15:33;1005.11;;;32.68;54.57
37170;BME280;23062;13.952;100.608;2023-07-20T06:20:02;1005.07;;;32.68;54.74
37170;BME280;23062;13.952;100.608;2023-07-20T06:24:29;1005.00;;;32.68;54.68
37170;BME280;23062;13.952;100.608;2023-07-20T06:28:54;1004.89;;;32.68;54.86
37170;BME280;23062;13.952;100.608;2023-07-20T06:33:29;1004.88;;;32.70;54.74
37170;BME280;23062;13.952;100.608;2023-07-20T06:37:54;1004.81;;;32.74;54.58
37170;BME280;23062;13.952;100.608;2023-07-20T06:42:26;1004.73;;;32.73;54.20
37170;BME280;23062;13.952;100.608;2023-07-20T06:47:01;1004.59;;;32.76;53.95
37170;BME280;23062;13.952;100.608;2023-07-20T06:51:36;1004.56;;;32.78;53.85
37170;BME280;23062;13.952;100.608;2023-07-20T06:56:02;1004.42;;;32.80;53.89
37170;BME280;23062;13.952;100.608;2023-07-20T07:00:28;1004.33;;;32.85;53.86
37170;BME280;23062;13.952;100.608;2023-07-20T07:04:55;1004.23;;;32.85;53.74
37170;BME280;23062;13.952;100.608;2023-07-20T07:09:22;1004.21;;;32.89;53.65
37170;BME280;23062;13.952;100.608;2023-07-20T07:13:48;1004.13;;;32.87;53.78
37170;BME280;23062;13.952;100.608;2023-07-20T07:18:14;1004.07;;;32.89;53.97
37170;BME280;23062;13.952;100.608;2023-07-20T07:22:42;1004.02;;;32.94;54.10
37170;BME280;23062;13.952;100.608;2023-07-20T07:27:17;1003.87;;;32.88;54.33
37170;BME280;23062;13.952;100.608;2023-07-20T07:31:43;1003.82;;;32.82;54.54
37170;BME280;23062;13.952;100.608;2023-07-20T07:36:09;1003.74;;;32.79;54.66
37170;BME280;23062;13.952;100.608;2023-07-20T07:40:38;1003.68;;;32.80;54.69
37170;BME280;23062;13.952;100.608;2023-07-20T07:45:06;1003.71;;;32.80;54.62
37170;BME280;23062;13.952;100.608;2023-07-20T07:49:40;1003.68;;;32.93;54.21
37170;BME280;23062;13.952;100.608;2023-07-20T07:54:13;1003.66;;;32.92;54.37
37170;BME280;23062;13.952;100.608;2023-07-20T07:58:40;1003.66;;;32.95;54.53
37170;BME280;23062;13.952;100.608;2023-07-20T08:03:09;1003.68;;;32.93;54.75
37170;BME280;23062;13.952;100.608;2023-07-20T08:07:43;1003.66;;;32.93;55.02
37170;BME280;23062;13.952;100.608;2023-07-20T08:12:17;1003.59;;;32.99;54.93
37170;BME280;23062;13.952;100.608;2023-07-20T08:16:43;1003.56;;;33.03;54.76
37170;BME280;23062;13.952;100.608;2023-07-20T08:21:17;1003.58;;;33.01;54.95
37170;BME280;23062;13.952;100.608;2023-07-20T08:25:43;1003.50;;;33.02;55.14
37170;BME280;23062;13.952;100.608;2023-07-20T08:30:16;1003.36;;;33.01;55.17
37170;BME280;23062;13.952;100.608;2023-07-20T08:34:43;1003.44;;;32.99;55.17
37170;BME280;23062;13.952;100.608;2023-07-20T08:39:09;1003.47;;;33.02;55.12
37170;BME280;23062;13.952;100.608;2023-07-20T08:43:37;1003.50;;;32.99;55.23
37170;BME280;23062;13.952;100.608;2023-07-20T08:48:06;1003.48;;;32.98;55.12
37170;BME280;23062;13.952;100.608;2023-07-20T08:52:36;1003.47;;;33.01;55.45
37170;BME280;23062;13.952;100.608;2023-07-20T08:57:05;1003.54;;;33.06;56.13
37170;BME280;23062;13.952;100.608;2023-07-20T09:01:32;1003.63;;;33.04;56.68
37170;BME280;23062;13.952;100.608;2023-07-20T09:06:02;1003.66;;;33.02;57.27
37170;BME280;23062;13.952;100.608;2023-07-20T09:10:33;1003.73;;;32.99;57.66
37170;BME280;23062;13.952;100.608;2023-07-20T09:15:01;1003.79;;;32.95;57.89
37170;BME280;23062;13.952;100.608;2023-07-20T09:19:27;1003.77;;;32.88;57.84
37170;BME280;23062;13.952;100.608;2023-07-20T09:23:54;1003.82;;;32.82;57.58
37170;BME280;23062;13.952;100.608;2023-07-20T09:28:20;1003.80;;;32.82;57.35
37170;BME280;23062;13.952;100.608;2023-07-20T09:32:50;1003.74;;;32.76;57.69
37170;BME280;23062;13.952;100.608;2023-07-20T09:37:19;1003.79;;;32.73;58.09
37170;BME280;23062;13.952;100.608;2023-07-20T09:41:49;1003.80;;;32.72;58.36
37170;BME280;23062;13.952;100.608;2023-07-20T09:46:15;1003.80;;;32.68;58.71
37170;BME280;23062;13.952;100.608;2023-07-20T09:50:50;1003.75;;;32.69;59.10
37170;BME280;23062;13.952;100.608;2023-07-20T09:55:16;1003.78;;;32.67;59.31
37170;BME280;23062;13.952;100.608;2023-07-20T09:59:43;1003.82;;;32.66;59.28
37170;BME280;23062;13.952;100.608;2023-07-20T10:04:12;1003.86;;;32.66;59.08
37170;BME280;23062;13.952;100.608;2023-07-20T10:08:40;1003.86;;;32.62;58.97
37170;BME280;23062;13.952;100.608;2023-07-20T10:13:07;1003.87;;;32.61;58.88
37170;BME280;23062;13.952;100.608;2023-07-20T10:17:47;1003.91;;;32.59;58.67
37170;BME280;23062;13.952;100.608;2023-07-20T10:22:24;1003.90;;;32.64;58.35
37170;BME280;23062;13.952;100.608;2023-07-20T10:26:56;1004.04;;;32.58;58.75
37170;BME280;23062;13.952;100.608;2023-07-20T10:31:25;1004.25;;;32.54;59.14
37170;BME280;23062;13.952;100.608;2023-07-20T10:36:05;1004.38;;;32.54;59.42
37170;BME280;23062;13.952;100.608;2023-07-20T10:40:37;1004.35;;;32.55;59.61
37170;BME280;23062;13.952;100.608;2023-07-20T10:45:02;1004.28;;;32.48;59.93
37170;BME280;23062;13.952;100.608;2023-07-20T10:49:29;1004.26;;;32.45;60.08
37170;BME280;23062;13.952;100.608;2023-07-20T10:53:58;1004.28;;;32.49;59.98
37170;BME280;23062;13.952;100.608;2023-07-20T10:58:31;1004.27;;;32.55;60.16
37170;BME280;23062;13.952;100.608;2023-07-20T11:02:58;1004.29;;;32.49;60.26
37170;BME280;23062;13.952;100.608;2023-07-20T11:07:40;1004.36;;;32.43;60.69
37170;BME280;23062;13.952;100.608;2023-07-20T11:12:17;1004.43;;;32.39;61.13
37170;BME280;23062;13.952;100.608;2023-07-20T11:16:47;1004.55;;;32.31;61.59
37170;BME280;23062;13.952;100.608;2023-07-20T11:21:18;1004.71;;;32.27;62.21
37170;BME280;23062;13.952;100.608;2023-07-20T11:25:44;1004.76;;;32.28;62.43
37170;BME280;23062;13.952;100.608;2023-07-20T11:30:17;1004.80;;;32.25;62.47
37170;BME280;23062;13.952;100.608;2023-07-20T11:34:44;1004.87;;;32.20;62.55
37170;BME280;23062;13.952;100.608;2023-07-20T11:39:14;1004.92;;;32.22;62.56
37170;BME280;23062;13.952;100.608;2023-07-20T11:43:42;1005.01;;;32.24;62.36
37170;BME280;23062;13.952;100.608;2023-07-20T11:48:14;1005.04;;;32.33;62.39
37170;BME280;23062;13.952;100.608;2023-07-20T11:52:38;1005.10;;;32.40;62.06
37170;BME280;23062;13.952;100.608;2023-07-20T11:57:07;1005.13;;;32.31;62.22
37170;BME280;23062;13.952;100.608;2023-07-20T12:01:33;1005.14;;;32.24;62.39
37170;BME280;23062;13.952;100.608;2023-07-20T12:06:09;1005.12;;;32.16;62.64
37170;BME280;23062;13.952;100.608;2023-07-20T12:10:28;1005.13;;;32.11;63.07
37170;BME280;23062;13.952;100.608;2023-07-20T12:14:56;1005.12;;;32.13;63.14
37170;BME280;23062;13.952;100.608;2023-07-20T12:19:30;1005.19;;;32.15;63.42
37170;BME280;23062;13.952;100.608;2023-07-20T12:24:04;1005.18;;;32.13;63.56
37170;BME280;23062;13.952;100.608;2023-07-20T12:28:31;1005.20;;;32.17;63.76
37170;BME280;23062;13.952;100.608;2023-07-20T12:32:57;1005.24;;;32.17;63.76
37170;BME280;23062;13.952;100.608;2023-07-20T12:37:23;1005.28;;;32.14;64.06
37170;BME280;23062;13.952;100.608;2023-07-20T12:41:49;1005.31;;;32.01;64.80
37170;BME280;23062;13.952;100.608;2023-07-20T12:46:18;1005.29;;;32.10;64.58
37170;BME280;23062;13.952;100.608;2023-07-20T12:50:46;1005.31;;;32.11;64.38
37170;BME280;23062;13.952;100.608;2023-07-20T12:55:13;1005.41;;;32.15;64.61
37170;BME280;23062;13.952;100.608;2023-07-20T12:59:47;1005.47;;;32.23;64.15
37170;BME280;23062;13.952;100.608;2023-07-20T13:04:16;1005.53;;;32.28;64.24
37170;BME280;23062;13.952;100.608;2023-07-20T13:08:42;1005.60;;;32.23;64.32
37170;BME280;23062;13.952;100.608;2023-07-20T13:13:15;1005.55;;;32.14;64.55
37170;BME280;23062;13.952;100.608;2023-07-20T13:17:48;1005.55;;;32.23;64.15
37170;BME280;23062;13.952;100.608;2023-07-20T13:22:15;1005.62;;;32.27;64.27
37170;BME280;23062;13.952;100.608;2023-07-20T13:26:41;1005.72;;;32.30;63.99
37170;BME280;23062;13.952;100.608;2023-07-20T13:31:09;1005.81;;;32.37;66.32
37170;BME280;23062;13.952;100.608;2023-07-20T13:35:35;1005.89;;;32.36;65.80
37170;BME280;23062;13.952;100.608;2023-07-20T13:40:10;1005.92;;;32.41;65.28
37170;BME280;23062;13.952;100.608;2023-07-20T13:44:39;1005.91;;;32.55;64.26
37170;BME280;23062;13.952;100.608;2023-07-20T13:49:14;1005.98;;;32.57;63.63
37170;BME280;23062;13.952;100.608;2023-07-20T13:53:42;1006.10;;;32.62;63.30
37170;BME280;23062;13.952;100.608;2023-07-20T13:58:10;1006.23;;;32.65;63.45
37170;BME280;23062;13.952;100.608;2023-07-20T14:02:36;1006.33;;;32.62;63.16
37170;BME280;23062;13.952;100.608;2023-07-20T14:07:04;1006.35;;;32.63;62.65
37170;BME280;23062;13.952;100.608;2023-07-20T14:11:32;1006.40;;;32.60;63.23
37170;BME280;23062;13.952;100.608;2023-07-20T14:15:59;1006.41;;;32.66;62.40
37170;BME280;23062;13.952;100.608;2023-07-20T14:20:28;1006.48;;;32.62;62.84
37170;BME280;23062;13.952;100.608;2023-07-20T14:24:53;1006.54;;;32.62;63.06
37170;BME280;23062;13.952;100.608;2023-07-20T14:29:24;1006.63;;;32.58;62.64
37170;BME280;23062;13.952;100.608;2023-07-20T14:33:55;1006.70;;;32.58;62.31
37170;BME280;23062;13.952;100.608;2023-07-20T14:38:25;1006.79;;;32.57;62.31
37170;BME280;23062;13.952;100.608;2023-07-20T14:42:51;1006.86;;;32.58;61.92
37170;BME280;23062;13.952;100.608;2023-07-20T14:47:18;1007.01;;;32.56;62.06
37170;BME280;23062;13.952;100.608;2023-07-20T14:51:50;1007.10;;;32.57;62.13
37170;BME280;23062;13.952;100.608;2023-07-20T14:56:18;1007.14;;;32.58;61.82
37170;BME280;23062;13.952;100.608;2023-07-20T15:00:52;1007.24;;;32.58;61.62
37170;BME280;23062;13.952;100.608;2023-07-20T15:05:25;1007.30;;;32.56;61.50
37170;BME280;23062;13.952;100.608;2023-07-20T15:09:52;1007.37;;;32.55;61.58
37170;BME280;23062;13.952;100.608;2023-07-20T15:14:18;1007.36;;;32.58;61.58
37170;BME280;23062;13.952;100.608;2023-07-20T15:18:46;1007.40;;;32.53;61.52
37170;BME280;23062;13.952;100.608;2023-07-20T15:23:14;1007.47;;;32.49;61.73
37170;BME280;23062;13.952;100.608;2023-07-20T15:27:40;1007.47;;;32.56;61.14
37170;BME280;23062;13.952;100.608;2023-07-20T15:32:08;1007.52;;;32.59;61.26
37170;BME280;23062;13.952;100.608;2023-07-20T15:36:41;1007.64;;;32.49;61.58
37170;BME280;23062;13.952;100.608;2023-07-20T15:41:09;1007.58;;;32.55;61.28
37170;BME280;23062;13.952;100.608;2023-07-20T15:45:36;1007.64;;;32.51;61.59
37170;BME280;23062;13.952;100.608;2023-07-20T15:50:10;1007.64;;;32.55;61.07
37170;BME280;23062;13.952;100.608;2023-07-20T15:54:36;1007.61;;;32.55;61.11
37170;BME280;23062;13.952;100.608;2023-07-20T15:59:04;1007.61;;;32.52;61.39
37170;BME280;23062;13.952;100.608;2023-07-20T16:03:30;1007.70;;;32.59;60.95
37170;BME280;23062;13.952;100.608;2023-07-20T16:07:57;1007.66;;;32.50;61.49
37170;BME280;23062;13.952;100.608;2023-07-20T16:12:22;1007.57;;;32.53;61.35
37170;BME280;23062;13.952;100.608;2023-07-20T16:16:57;1007.52;;;32.53;61.26
37170;BME280;23062;13.952;100.608;2023-07-20T16:21:23;1007.41;;;32.55;61.04
37170;BME280;23062;13.952;100.608;2023-07-20T16:25:50;1007.40;;;32.56;60.95
37170;BME280;23062;13.952;100.608;2023-07-20T16:30:20;1007.36;;;32.56;60.84
37170;BME280;23062;13.952;100.608;2023-07-20T16:34:49;1007.29;;;32.55;60.90
37170;BME280;23062;13.952;100.608;2023-07-20T16:39:20;1007.28;;;32.52;61.00
37170;BME280;23062;13.952;100.608;2023-07-20T16:43:49;1007.36;;;32.52;61.03
37170;BME280;23062;13.952;100.608;2023-07-20T16:48:23;1007.26;;;32.52;60.84
37170;BME280;23062;13.952;100.608;2023-07-20T16:52:52;1007.20;;;32.52;60.75
37170;BME280;23062;13.952;100.608;2023-07-20T16:57:20;1007.23;;;32.52;60.67
37170;BME280;23062;13.952;100.608;2023-07-20T17:01:51;1007.19;;;32.51;60.70
37170;BME280;23062;13.952;100.608;2023-07-20T17:06:17;1007.01;;;32.50;60.63
37170;BME280;23062;13.952;100.608;2023-07-20T17:10:45;1007.05;;;32.51;60.46
37170;BME280;23062;13.952;100.608;2023-07-20T17:15:15;1007.09;;;32.49;60.63
37170;BME280;23062;13.952;100.608;2023-07-20T17:19:51;1007.04;;;32.49;60.45
37170;BME280;23062;13.952;100.608;2023-07-20T17:24:23;1007.00;;;32.48;60.40
37170;BME280;23062;13.952;100.608;2023-07-20T17:28:57;1007.05;;;32.46;60.49
37170;BME280;23062;13.952;100.608;2023-07-20T17:33:26;1007.07;;;32.46;60.30
37170;BME280;23062;13.952;100.608;2023-07-20T17:37:52;1007.15;;;32.45;60.24
37170;BME280;23062;13.952;100.608;2023-07-20T17:42:19;1007.16;;;32.47;60.10
37170;BME280;23062;13.952;100.608;2023-07-20T17:46:52;1007.12;;;32.45;60.14
37170;BME280;23062;13.952;100.608;2023-07-20T17:51:19;1007.06;;;32.44;60.08
37170;BME280;23062;13.952;100.608;2023-07-20T17:55:46;1006.90;;;32.45;60.01
37170;BME280;23062;13.952;100.608;2023-07-20T18:00:12;1006.86;;;32.44;59.98
37170;BME280;23062;13.952;100.608;2023-07-20T18:04:39;1006.75;;;32.42;60.05
37170;BME280;23062;13.952;100.608;2023-07-20T18:09:06;1006.66;;;32.43;59.97
37170;BME280;23062;13.952;100.608;2023-07-20T18:13:33;1006.69;;;32.42;59.90
37170;BME280;23062;13.952;100.608;2023-07-20T18:18:00;1006.70;;;32.42;59.83
37170;BME280;23062;13.952;100.608;2023-07-20T18:22:28;1006.71;;;32.42;59.83
37170;BME280;23062;13.952;100.608;2023-07-20T18:26:54;1006.69;;;32.40;59.82
37170;BME280;23062;13.952;100.608;2023-07-20T18:31:21;1006.64;;;32.42;59.73
37170;BME280;23062;13.952;100.608;2023-07-20T18:35:52;1006.53;;;32.41;59.73
37170;BME280;23062;13.952;100.608;2023-07-20T18:40:20;1006.51;;;32.41;59.70
37170;BME280;23062;13.952;100.608;2023-07-20T18:44:47;1006.55;;;32.40;59.66
37170;BME280;23062;13.952;100.608;2023-07-20T18:49:12;1006.55;;;32.39;59.65
37170;BME280;23062;13.952;100.608;2023-07-20T18:53:38;1006.56;;;32.39;59.64
37170;BME280;23062;13.952;100.608;2023-07-20T18:58:10;1006.51;;;32.36;59.70
37170;BME280;23062;13.952;100.608;2023-07-20T19:02:44;1006.54;;;32.37;59.62
37170;BME280;23062;13.952;100.608;2023-07-20T19:07:12;1006.54;;;32.37;59.56
37170;BME280;23062;13.952;100.608;2023-07-20T19:11:45;1006.50;;;32.34;59.54
37170;BME280;23062;13.952;100.608;2023-07-20T19:16:12;1006.44;;;32.35;59.56
37170;BME280;23062;13.952;100.608;2023-07-20T19:20:40;1006.42;;;32.34;59.54
37170;BME280;23062;13.952;100.608;2023-07-20T19:25:07;1006.41;;;32.31;59.60
37170;BME280;23062;13.952;100.608;2023-07-20T19:29:36;1006.43;;;32.34;59.44
37170;BME280;23062;13.952;100.608;2023-07-20T19:34:10;1006.38;;;32.32;59.49
37170;BME280;23062;13.952;100.608;2023-07-20T19:38:36;1006.38;;;32.33;59.57
37170;BME280;23062;13.952;100.608;2023-07-20T19:43:04;1006.35;;;32.32;59.61
37170;BME280;23062;13.952;100.608;2023-07-20T19:47:37;1006.35;;;32.19;60.15
37170;BME280;23062;13.952;100.608;2023-07-20T19:52:05;1006.32;;;32.08;60.53
37170;BME280;23062;13.952;100.608;2023-07-20T19:56:33;1006.30;;;32.04;60.71
37170;BME280;23062;13.952;100.608;2023-07-20T20:01:01;1006.33;;;32.06;60.70
37170;BME280;23062;13.952;100.608;2023-07-20T20:05:27;1006.30;;;32.04;60.65
37170;BME280;23062;13.952;100.608;2023-07-20T20:09:54;1006.30;;;32.03;60.74
37170;BME280;23062;13.952;100.608;2023-07-20T20:14:22;1006.28;;;32.02;60.79
37170;BME280;23062;13.952;100.608;2023-07-20T20:18:59;1006.28;;;32.04;60.68
37170;BME280;23062;13.952;100.608;2023-07-20T20:23:28;1006.23;;;32.04;60.74
37170;BME280;23062;13.952;100.608;2023-07-20T20:27:56;1006.21;;;32.02;60.81
37170;BME280;23062;13.952;100.608;2023-07-20T20:32:26;1006.27;;;32.04;60.67
37170;BME280;23062;13.952;100.608;2023-07-20T20:36:54;1006.32;;;32.01;60.76
37170;BME280;23062;13.952;100.608;2023-07-20T20:41:20;1006.36;;;32.01;60.77
37170;BME280;23062;13.952;100.608;2023-07-20T20:45:46;1006.41;;;31.94;60.57
37170;BME280;23062;13.952;100.608;2023-07-20T20:50:16;1006.45;;;31.88;60.50
37170;BME280;23062;13.952;100.608;2023-07-20T20:54:45;1006.50;;;31.82;60.64
37170;BME280;23062;13.952;100.608;2023-07-20T20:59:14;1006.49;;;31.79;60.74
37170;BME280;23062;13.952;100.608;2023-07-20T21:03:42;1006.44;;;31.79;60.97
37170;BME280;23062;13.952;100.608;2023-07-20T21:08:09;1006.41;;;31.75;61.06
37170;BME280;23062;13.952;100.608;2023-07-20T21:12:44;1006.44;;;31.76;61.00
37170;BME280;23062;13.952;100.608;2023-07-20T21:17:13;1006.37;;;31.75;61.11
37170;BME280;23062;13.952;100.608;2023-07-20T21:21:38;1006.36;;;31.71;61.15
37170;BME280;23062;13.952;100.608;2023-07-20T21:26:04;1006.39;;;31.72;61.21
37170;BME280;23062;13.952;100.608;2023-07-20T21:30:38;1006.36;;;31.72;61.18
37170;BME280;23062;13.952;100.608;2023-07-20T21:35:12;1006.35;;;31.72;61.30
37170;BME280;23062;13.952;100.608;2023-07-20T21:39:37;1006.33;;;31.76;61.18
37170;BME280;23062;13.952;100.608;2023-07-20T21:44:04;1006.34;;;31.81;61.02
37170;BME280;23062;13.952;100.608;2023-07-20T21:48:38;1006.40;;;31.75;61.22
37170;BME280;23062;13.952;100.608;2023-07-20T21:53:05;1006.39;;;31.71;61.34
37170;BME280;23062;13.952;100.608;2023-07-20T21:57:38;1006.37;;;31.71;61.42
37170;BME280;23062;13.952;100.608;2023-07-20T22:02:12;1006.41;;;31.76;61.30
37170;BME280;23062;13.952;100.608;2023-07-20T22:06:39;1006.41;;;31.71;61.47
37170;BME280;23062;13.952;100.608;2023-07-20T22:11:07;1006.43;;;31.67;61.38
37170;BME280;23062;13.952;100.608;2023-07-20T22:15:34;1006.46;;;31.67;62.72
37170;BME280;23062;13.952;100.608;2023-07-20T22:20:01;1006.48;;;31.66;62.43
37170;BME280;23062;13.952;100.608;2023-07-20T22:24:30;1006.51;;;31.67;62.34
37170;BME280;23062;13.952;100.608;2023-07-20T22:29:00;1006.50;;;31.67;62.31
37170;BME280;23062;13.952;100.608;2023-07-20T22:33:28;1006.47;;;31.72;61.92
37170;BME280;23062;13.952;100.608;2023-07-20T22:38:02;1006.50;;;31.63;62.16
37170;BME280;23062;13.952;100.608;2023-07-20T22:42:27;1006.55;;;31.61;62.26
37170;BME280;23062;13.952;100.608;2023-07-20T22:47:01;1006.61;;;31.62;62.22
37170;BME280;23062;13.952;100.608;2023-07-20T22:51:28;1006.67;;;31.60;62.18
37170;BME280;23062;13.952;100.608;2023-07-20T22:56:01;1006.76;;;31.66;61.59
37170;BME280;23062;13.952;100.608;2023-07-20T23:00:27;1006.75;;;31.68;61.26
37170;BME280;23062;13.952;100.608;2023-07-20T23:04:54;1006.75;;;31.71;61.07
37170;BME280;23062;13.952;100.608;2023-07-20T23:09:20;1006.75;;;31.72;61.06
37170;BME280;23062;13.952;100.608;2023-07-20T23:13:46;1006.77;;;31.68;61.05
37170;BME280;23062;13.952;100.608;2023-07-20T23:18:15;1006.83;;;31.67;61.07
37170;BME280;23062;13.952;100.608;2023-07-20T23:22:41;1006.88;;;31.75;60.76
37170;BME280;23062;13.952;100.608;2023-07-20T23:27:12;1006.82;;;31.66;61.00
37170;BME280;23062;13.952;100.608;2023-07-20T23:31:40;1006.87;;;31.67;60.75
37170;BME280;23062;13.952;100.608;2023-07-20T23:36:05;1006.91;;;31.73;60.38